Historyczne dane pomiarowe

Dodano dane terminowe – wersja testowa.

Dane z okresu 1951-2019

Wersja bazy: 1.34 [2019-03-16, lista zmian], aktualizacja planowana na 2019-04-15

Dane meteo z obszaru Polski uzyskane na podstawie danych udostępnionych przez Instytut Meteorologii i Gospodarki Wodnej – Państwowy Instytut Badawczy.

 

Wybierz Datę:    

       

TemperaturaWilgotnośćWiatrCiśnienieOpadyŚniegCzas trwania zjawisk
 Stacja t tx tn tng RH VA  wxwx mslp ppp RRR   cm mm wxwxwxwxwxwxwx
1983-08-14 13.4 15.5 9.3- 88.8- 5.7 3.7---- 0.8------------
1983-08-13 16.0 21.8 11.3- 89.5- 6.7 4.3---- 5.2------------
1983-08-12 18.4 26.1 15.4- 90.8- 5.0 2.7---- 10.1------------
1983-08-11 19.8 26.2 14.4- 85.0- 3.7 1.3---- 0.0------------
1983-08-10 19.1 24.8 13.9- 80.5- 4.3 1.0---- 0.0------------
1983-08-09 18.1 25.6 14.3- 89.3- 6.0 1.3---- 5.1------------
1983-08-08 17.2 22.3 13.9- 94.5- 5.0 1.7---- 1.3------------
1983-08-07 16.0 19.4 13.3- 95.3- 7.0 0.7---- 2.4------------
1983-08-06 15.8 20.4 11.8- 87.3- 5.7 1.3---- 0.0------------
1983-08-05 13.3 18.0 7.8- 87.8- 7.0 1.3---- 0.0------------
1983-08-04 11.8 17.4 10.0- 96.0- 8.0 2.3---- 4.2------------
1983-08-03 19.4 25.4 16.9- 85.5- 6.3 1.7---- 6.9------------
1983-08-02 19.6 27.4 13.3- 85.0- 4.7 2.7---- 14.4------------
1983-08-01 19.7 29.1 11.9- 72.8- 1.0 1.7---- 0.0------------
1983-07-31 17.9 23.8 9.8- 69.5- 1.0 1.3---- 0.0------------
1983-07-30 18.8 22.7 14.9- 82.3- 6.3 2.3---- 0.8------------
1983-07-29 21.0 25.3 14.3- 73.8- 5.0 2.3---- 1.4------------
1983-07-28 24.6 28.8 19.9- 64.5- 5.0 3.3---- 0.0------------
1983-07-27 23.7 31.9 16.4- 64.3- 3.3 1.3---- 0.0------------
1983-07-26 20.7 27.5 15.4- 68.3- 5.3 3.0---- 0.0------------
1983-07-25 16.5 21.1 11.0- 76.8- 7.0 2.0---- 0.0------------
1983-07-24 17.2 21.5 14.2- 84.5- 8.0 1.7---- 0.3------------
1983-07-23 17.2 22.4 12.8- 79.0- 7.3 2.7---- 0.0------------
1983-07-22 12.5 15.2 9.6- 88.5- 8.0 4.7---- 0.8------------
1983-07-21 13.0 16.6 8.9- 73.8- 6.0 5.0---- 0.0------------
1983-07-20 17.2 25.8 12.2- 90.8- 5.0 3.0---- 6.3------------
1983-07-19 23.9 29.6 18.1- 70.8- 2.0 1.7---- 6.2------------
1983-07-18 22.7 30.6 13.8- 73.5- 3.0 1.3---- 0.1------------
1983-07-17 22.0 26.6 16.3- 73.3- 5.7 2.0---- 0.0------------
1983-07-16 21.5 27.7 14.9- 70.8- 2.0 2.3---- 0.0------------
1983-07-15 19.7 25.6 13.3- 77.0- 3.7 2.0---- 0.0------------
1983-07-14 17.5 20.8 15.2- 93.8- 7.3 3.0---- 4.2------------
1983-07-13 19.0 25.6 16.2- 88.3- 5.7 4.7---- 5.8------------
1983-07-12 18.4 23.2 16.0- 92.8- 7.3 2.0---- 4.4------------
1983-07-11 20.2 28.8 15.4- 82.3- 6.0 2.7---- 2.1------------
1983-07-10 22.4 28.1 13.8- 64.8- 2.3 1.7---- 0.0------------
1983-07-09 21.0 27.1 11.2- 68.5- 3.0 1.0---- 0.0------------
1983-07-08 20.7 27.1 11.2- 57.0- 2.0 1.3---- 0.0------------
1983-07-07 21.7 28.1 13.3- 73.8- 2.7 1.3---- 0.0------------
1983-07-06 20.7 27.7 13.4- 73.5- 2.3 1.3---- 0.0------------
1983-07-05 20.6 26.8 13.3- 73.5- 4.3 1.7---- 0.0------------
1983-07-04 19.6 25.5 11.3- 74.0- 3.0 1.0---- 0.0------------
1983-07-03 19.1 23.7 11.5- 75.3- 3.3 1.0---- 0.0------------
1983-07-02 19.0 23.2 14.8- 81.8- 7.7 3.3---- 0.0------------
1983-07-01 19.4 26.1 10.8- 70.8- 2.3 1.0---- 0.0------------
1983-06-30 16.0 23.1 7.7- 77.8- 3.7 2.7---- 0.0------------
1983-06-29 14.5 17.8 9.3- 69.8- 4.0 2.0---- 0.0------------
1983-06-28 16.1 20.2 14.8- 92.5- 8.0 2.7---- 3.3------------
1983-06-27 21.2 27.6 16.4- 78.3- 6.3 3.0---- 12.3------------
1983-06-26 20.8 25.1 15.9- 80.0- 5.7 2.3---- 0.0------------
1983-06-25 21.9 27.4 16.7- 63.5- 2.3 2.0---- 0.7------------
1983-06-24 17.6 25.9 6.9- 71.8- 2.0 2.0---- 0.0------------
1983-06-23 14.7 23.0 5.6- 72.5- 1.3 2.3---- 0.0------------
1983-06-22 15.8 23.0 11.3- 69.0- 2.0 2.3---- 0.0------------
1983-06-21 19.0 24.8 12.6- 77.0- 4.7 1.3---- 0.0------------
1983-06-20 17.0 21.0 14.5- 95.3- 7.0 1.7---- 1.2------------
1983-06-19 14.6 18.4 11.3- 95.3- 8.0 3.0---- 11.3------------
1983-06-18 11.6 14.1 9.1- 94.3- 8.0 2.7---- 28.9------------
1983-06-17 12.2 15.0 9.9- 85.3- 7.3 2.7---- 13.3------------
1983-06-16 11.1 14.4 8.2- 92.8- 8.0 2.0---- 0.2------------
384.2 ms

 

Źródłem pochodzenia danych jest Instytut Meteorologii i Gospodarki Wodnej – Państwowy Instytut Badawczy. Dane Instytutu Meteorologii i Gospodarki Wodnej – Państwowego Instytutu Badawczego zostały przetworzone.

Dane źródłowe można odnaleźć na stronie https://dane.imgw.pl